Terminal Aerodrome Forecast
Issued by NWS Pueblo, CO

Home | Current Version | Previous Version | Text Only | Print | Product List | Glossary On
Versions: 1 2 3 4 5 6 7 8 9 10 11 12 13 14 15 16 17 18 19 20 21 22 23 24 25 26 27 28
000
FTUS45 KPUB 241120
TAFPUB
TAF
KPUB 241120Z 2412/2512 VRB05KT P6SM FEW150
     FM241900 23010G20KT P6SM VCTS SCT090CB SCT110 BKN150
     FM250100 29012G22KT P6SM VCTS SCT090CB BKN120
     FM250400 VRB06KT P6SM SCT090 BKN150=

USA.gov is the U.S. government's official web portal to all federal, state and local government web resources and services.